sensor_id;sensor_type;location;lat;lon;timestamp;P1;durP1;ratioP1;P2;durP2;ratioP2
15482;SDS011;7843;50.330;7.312;2023-04-08T00:01:35;14.77;;;7.65;;
15482;SDS011;7843;50.330;7.312;2023-04-08T00:04:02;19.83;;;9.80;;
15482;SDS011;7843;50.330;7.312;2023-04-08T00:06:29;17.17;;;7.53;;
15482;SDS011;7843;50.330;7.312;2023-04-08T00:08:56;17.33;;;8.35;;
15482;SDS011;7843;50.330;7.312;2023-04-08T00:11:23;19.23;;;8.23;;
15482;SDS011;7843;50.330;7.312;2023-04-08T00:13:50;15.93;;;8.77;;
15482;SDS011;7843;50.330;7.312;2023-04-08T00:16:16;15.82;;;8.05;;
15482;SDS011;7843;50.330;7.312;2023-04-08T00:18:43;17.33;;;8.70;;
15482;SDS011;7843;50.330;7.312;2023-04-08T00:21:10;19.47;;;10.33;;
15482;SDS011;7843;50.330;7.312;2023-04-08T00:23:36;16.25;;;8.70;;
15482;SDS011;7843;50.330;7.312;2023-04-08T00:26:03;20.63;;;9.65;;
15482;SDS011;7843;50.330;7.312;2023-04-08T00:28:30;18.67;;;8.70;;
15482;SDS011;7843;50.330;7.312;2023-04-08T00:30:57;16.92;;;9.10;;
15482;SDS011;7843;50.330;7.312;2023-04-08T00:33:23;22.75;;;10.30;;
15482;SDS011;7843;50.330;7.312;2023-04-08T00:35:50;23.98;;;10.25;;
15482;SDS011;7843;50.330;7.312;2023-04-08T00:38:17;19.67;;;8.80;;
15482;SDS011;7843;50.330;7.312;2023-04-08T00:40:44;19.02;;;9.40;;
15482;SDS011;7843;50.330;7.312;2023-04-08T00:43:11;19.17;;;10.27;;
15482;SDS011;7843;50.330;7.312;2023-04-08T00:45:38;19.40;;;9.25;;
15482;SDS011;7843;50.330;7.312;2023-04-08T00:48:04;19.10;;;10.02;;
15482;SDS011;7843;50.330;7.312;2023-04-08T00:50:31;19.77;;;9.93;;
15482;SDS011;7843;50.330;7.312;2023-04-08T00:52:58;23.67;;;9.55;;
15482;SDS011;7843;50.330;7.312;2023-04-08T00:55:26;19.70;;;9.25;;
15482;SDS011;7843;50.330;7.312;2023-04-08T00:57:52;22.65;;;10.20;;
15482;SDS011;7843;50.330;7.312;2023-04-08T01:00:20;18.20;;;8.97;;
15482;SDS011;7843;50.330;7.312;2023-04-08T01:02:54;21.05;;;9.05;;
15482;SDS011;7843;50.330;7.312;2023-04-08T01:05:39;21.85;;;11.07;;
15482;SDS011;7843;50.330;7.312;2023-04-08T01:08:20;18.67;;;9.00;;
15482;SDS011;7843;50.330;7.312;2023-04-08T01:10:50;23.02;;;9.65;;
15482;SDS011;7843;50.330;7.312;2023-04-08T01:13:19;19.88;;;9.82;;
15482;SDS011;7843;50.330;7.312;2023-04-08T01:15:51;24.20;;;9.32;;
15482;SDS011;7843;50.330;7.312;2023-04-08T01:18:19;18.70;;;10.83;;
15482;SDS011;7843;50.330;7.312;2023-04-08T01:20:47;23.58;;;9.88;;
15482;SDS011;7843;50.330;7.312;2023-04-08T01:23:28;27.80;;;10.35;;
15482;SDS011;7843;50.330;7.312;2023-04-08T01:26:04;16.97;;;9.23;;
15482;SDS011;7843;50.330;7.312;2023-04-08T01:28:30;25.70;;;12.00;;
15482;SDS011;7843;50.330;7.312;2023-04-08T01:30:59;25.57;;;10.47;;
15482;SDS011;7843;50.330;7.312;2023-04-08T01:33:27;29.90;;;10.98;;
15482;SDS011;7843;50.330;7.312;2023-04-08T01:35:55;21.70;;;10.68;;
15482;SDS011;7843;50.330;7.312;2023-04-08T01:38:24;21.42;;;10.38;;
15482;SDS011;7843;50.330;7.312;2023-04-08T01:40:54;22.77;;;10.32;;
15482;SDS011;7843;50.330;7.312;2023-04-08T01:43:22;21.10;;;10.13;;
15482;SDS011;7843;50.330;7.312;2023-04-08T01:45:50;26.63;;;10.23;;
15482;SDS011;7843;50.330;7.312;2023-04-08T01:48:23;22.05;;;10.73;;
15482;SDS011;7843;50.330;7.312;2023-04-08T01:50:50;18.17;;;9.80;;
15482;SDS011;7843;50.330;7.312;2023-04-08T01:53:18;26.65;;;10.50;;
15482;SDS011;7843;50.330;7.312;2023-04-08T01:55:44;22.55;;;10.02;;
15482;SDS011;7843;50.330;7.312;2023-04-08T01:58:16;20.65;;;11.00;;
15482;SDS011;7843;50.330;7.312;2023-04-08T02:00:46;21.58;;;9.85;;
15482;SDS011;7843;50.330;7.312;2023-04-08T02:03:13;23.80;;;11.17;;
15482;SDS011;7843;50.330;7.312;2023-04-08T02:05:43;22.92;;;10.65;;
15482;SDS011;7843;50.330;7.312;2023-04-08T02:08:10;27.65;;;10.77;;
15482;SDS011;7843;50.330;7.312;2023-04-08T02:10:37;17.23;;;8.98;;
15482;SDS011;7843;50.330;7.312;2023-04-08T02:13:04;25.27;;;10.27;;
15482;SDS011;7843;50.330;7.312;2023-04-08T02:15:35;28.02;;;10.80;;
15482;SDS011;7843;50.330;7.312;2023-04-08T02:18:13;23.58;;;9.60;;
15482;SDS011;7843;50.330;7.312;2023-04-08T02:20:42;21.02;;;9.88;;
15482;SDS011;7843;50.330;7.312;2023-04-08T02:23:18;20.23;;;9.68;;
15482;SDS011;7843;50.330;7.312;2023-04-08T02:25:46;24.98;;;10.02;;
15482;SDS011;7843;50.330;7.312;2023-04-08T02:28:14;24.93;;;10.83;;
15482;SDS011;7843;50.330;7.312;2023-04-08T02:30:47;24.08;;;11.25;;
15482;SDS011;7843;50.330;7.312;2023-04-08T02:33:19;22.65;;;10.43;;
15482;SDS011;7843;50.330;7.312;2023-04-08T02:35:47;26.50;;;11.23;;
15482;SDS011;7843;50.330;7.312;2023-04-08T02:38:16;29.63;;;10.63;;
15482;SDS011;7843;50.330;7.312;2023-04-08T02:40:43;22.95;;;10.38;;
15482;SDS011;7843;50.330;7.312;2023-04-08T02:43:09;31.23;;;11.90;;
15482;SDS011;7843;50.330;7.312;2023-04-08T02:45:40;20.42;;;9.43;;
15482;SDS011;7843;50.330;7.312;2023-04-08T02:48:08;23.17;;;10.77;;
15482;SDS011;7843;50.330;7.312;2023-04-08T02:50:35;24.17;;;11.82;;
15482;SDS011;7843;50.330;7.312;2023-04-08T02:53:02;20.95;;;10.45;;
15482;SDS011;7843;50.330;7.312;2023-04-08T02:55:29;25.83;;;10.23;;
15482;SDS011;7843;50.330;7.312;2023-04-08T02:57:56;20.77;;;10.25;;
15482;SDS011;7843;50.330;7.312;2023-04-08T03:00:22;27.27;;;10.48;;
15482;SDS011;7843;50.330;7.312;2023-04-08T03:02:49;21.35;;;9.43;;
15482;SDS011;7843;50.330;7.312;2023-04-08T03:05:16;17.83;;;8.65;;
15482;SDS011;7843;50.330;7.312;2023-04-08T03:07:44;19.57;;;9.77;;
15482;SDS011;7843;50.330;7.312;2023-04-08T03:10:11;22.98;;;10.70;;
15482;SDS011;7843;50.330;7.312;2023-04-08T03:12:38;24.48;;;10.55;;
15482;SDS011;7843;50.330;7.312;2023-04-08T03:15:04;21.88;;;9.05;;
15482;SDS011;7843;50.330;7.312;2023-04-08T03:17:32;20.27;;;9.55;;
15482;SDS011;7843;50.330;7.312;2023-04-08T03:20:00;21.33;;;8.97;;
15482;SDS011;7843;50.330;7.312;2023-04-08T03:22:29;19.77;;;10.13;;
15482;SDS011;7843;50.330;7.312;2023-04-08T03:24:56;22.15;;;10.48;;
15482;SDS011;7843;50.330;7.312;2023-04-08T03:27:23;18.88;;;9.95;;
15482;SDS011;7843;50.330;7.312;2023-04-08T03:29:50;21.77;;;10.00;;
15482;SDS011;7843;50.330;7.312;2023-04-08T03:32:18;22.83;;;10.75;;
15482;SDS011;7843;50.330;7.312;2023-04-08T03:34:44;22.50;;;10.38;;
15482;SDS011;7843;50.330;7.312;2023-04-08T03:37:11;25.67;;;11.15;;
15482;SDS011;7843;50.330;7.312;2023-04-08T03:39:38;22.30;;;10.27;;
15482;SDS011;7843;50.330;7.312;2023-04-08T03:42:05;22.58;;;10.43;;
15482;SDS011;7843;50.330;7.312;2023-04-08T03:44:31;24.27;;;11.27;;
15482;SDS011;7843;50.330;7.312;2023-04-08T03:46:58;20.52;;;9.85;;
15482;SDS011;7843;50.330;7.312;2023-04-08T03:49:25;24.42;;;10.32;;
15482;SDS011;7843;50.330;7.312;2023-04-08T03:51:51;18.42;;;9.18;;
15482;SDS011;7843;50.330;7.312;2023-04-08T03:54:18;20.75;;;10.45;;
15482;SDS011;7843;50.330;7.312;2023-04-08T03:56:45;19.52;;;9.57;;
15482;SDS011;7843;50.330;7.312;2023-04-08T03:59:11;20.55;;;9.32;;
15482;SDS011;7843;50.330;7.312;2023-04-08T04:01:38;19.53;;;10.07;;
15482;SDS011;7843;50.330;7.312;2023-04-08T04:04:06;18.42;;;9.35;;
15482;SDS011;7843;50.330;7.312;2023-04-08T04:06:33;15.17;;;8.27;;
15482;SDS011;7843;50.330;7.312;2023-04-08T04:08:59;16.95;;;8.40;;
15482;SDS011;7843;50.330;7.312;2023-04-08T04:11:26;15.52;;;7.45;;
15482;SDS011;7843;50.330;7.312;2023-04-08T04:13:53;17.73;;;9.00;;
15482;SDS011;7843;50.330;7.312;2023-04-08T04:16:19;18.33;;;8.70;;
15482;SDS011;7843;50.330;7.312;2023-04-08T04:18:46;19.13;;;8.90;;
15482;SDS011;7843;50.330;7.312;2023-04-08T04:21:13;17.25;;;8.77;;
15482;SDS011;7843;50.330;7.312;2023-04-08T04:23:39;17.52;;;8.48;;
15482;SDS011;7843;50.330;7.312;2023-04-08T04:26:07;16.40;;;9.10;;
15482;SDS011;7843;50.330;7.312;2023-04-08T04:28:35;12.02;;;7.30;;
15482;SDS011;7843;50.330;7.312;2023-04-08T04:31:02;18.92;;;8.43;;
15482;SDS011;7843;50.330;7.312;2023-04-08T04:33:29;16.48;;;7.90;;
15482;SDS011;7843;50.330;7.312;2023-04-08T04:35:56;17.02;;;8.40;;
15482;SDS011;7843;50.330;7.312;2023-04-08T04:38:23;14.70;;;7.65;;
15482;SDS011;7843;50.330;7.312;2023-04-08T04:40:49;14.82;;;8.05;;
15482;SDS011;7843;50.330;7.312;2023-04-08T04:43:16;18.25;;;7.70;;
15482;SDS011;7843;50.330;7.312;2023-04-08T04:45:43;17.98;;;8.88;;
15482;SDS011;7843;50.330;7.312;2023-04-08T04:48:10;16.77;;;9.07;;
15482;SDS011;7843;50.330;7.312;2023-04-08T04:50:36;19.23;;;8.95;;
15482;SDS011;7843;50.330;7.312;2023-04-08T04:53:03;17.48;;;8.50;;
15482;SDS011;7843;50.330;7.312;2023-04-08T04:55:30;14.25;;;7.18;;
15482;SDS011;7843;50.330;7.312;2023-04-08T04:57:57;18.42;;;9.20;;
15482;SDS011;7843;50.330;7.312;2023-04-08T05:00:23;16.42;;;8.68;;
15482;SDS011;7843;50.330;7.312;2023-04-08T05:02:50;17.33;;;8.77;;
15482;SDS011;7843;50.330;7.312;2023-04-08T05:05:17;16.00;;;8.67;;
15482;SDS011;7843;50.330;7.312;2023-04-08T05:07:44;22.50;;;8.77;;
15482;SDS011;7843;50.330;7.312;2023-04-08T05:10:11;19.60;;;8.55;;
15482;SDS011;7843;50.330;7.312;2023-04-08T05:12:37;15.70;;;7.65;;
15482;SDS011;7843;50.330;7.312;2023-04-08T05:15:04;18.65;;;9.48;;
15482;SDS011;7843;50.330;7.312;2023-04-08T05:17:32;19.65;;;8.10;;
15482;SDS011;7843;50.330;7.312;2023-04-08T05:19:59;20.50;;;9.32;;
15482;SDS011;7843;50.330;7.312;2023-04-08T05:22:25;15.68;;;9.05;;
15482;SDS011;7843;50.330;7.312;2023-04-08T05:24:52;15.25;;;7.85;;
15482;SDS011;7843;50.330;7.312;2023-04-08T05:27:19;16.63;;;8.77;;
15482;SDS011;7843;50.330;7.312;2023-04-08T05:29:46;18.70;;;9.63;;
15482;SDS011;7843;50.330;7.312;2023-04-08T05:32:13;17.45;;;8.00;;
15482;SDS011;7843;50.330;7.312;2023-04-08T05:34:42;17.38;;;8.52;;
15482;SDS011;7843;50.330;7.312;2023-04-08T05:37:09;20.30;;;8.70;;
15482;SDS011;7843;50.330;7.312;2023-04-08T05:39:36;20.20;;;10.13;;
15482;SDS011;7843;50.330;7.312;2023-04-08T05:42:03;22.00;;;9.93;;
15482;SDS011;7843;50.330;7.312;2023-04-08T05:44:30;18.13;;;9.82;;
15482;SDS011;7843;50.330;7.312;2023-04-08T05:46:56;21.90;;;10.73;;
15482;SDS011;7843;50.330;7.312;2023-04-08T05:49:23;20.08;;;9.75;;
15482;SDS011;7843;50.330;7.312;2023-04-08T05:51:50;21.02;;;9.15;;
15482;SDS011;7843;50.330;7.312;2023-04-08T05:54:17;20.20;;;9.02;;
15482;SDS011;7843;50.330;7.312;2023-04-08T05:56:43;19.10;;;9.73;;
15482;SDS011;7843;50.330;7.312;2023-04-08T05:59:11;17.38;;;8.95;;
15482;SDS011;7843;50.330;7.312;2023-04-08T06:01:38;21.80;;;10.65;;
15482;SDS011;7843;50.330;7.312;2023-04-08T06:04:04;18.70;;;9.85;;
15482;SDS011;7843;50.330;7.312;2023-04-08T06:06:31;19.88;;;10.40;;
15482;SDS011;7843;50.330;7.312;2023-04-08T06:08:58;21.20;;;11.15;;
15482;SDS011;7843;50.330;7.312;2023-04-08T06:11:25;22.27;;;10.48;;
15482;SDS011;7843;50.330;7.312;2023-04-08T06:13:51;21.17;;;10.48;;
15482;SDS011;7843;50.330;7.312;2023-04-08T06:16:18;21.23;;;9.80;;
15482;SDS011;7843;50.330;7.312;2023-04-08T06:18:46;22.63;;;10.57;;
15482;SDS011;7843;50.330;7.312;2023-04-08T06:21:13;21.73;;;10.00;;
15482;SDS011;7843;50.330;7.312;2023-04-08T06:23:39;20.00;;;10.07;;
15482;SDS011;7843;50.330;7.312;2023-04-08T06:26:06;18.75;;;10.18;;
15482;SDS011;7843;50.330;7.312;2023-04-08T06:28:33;20.25;;;9.57;;
15482;SDS011;7843;50.330;7.312;2023-04-08T06:30:59;17.65;;;9.48;;
15482;SDS011;7843;50.330;7.312;2023-04-08T06:33:26;19.40;;;9.77;;
15482;SDS011;7843;50.330;7.312;2023-04-08T06:36:02;17.23;;;8.68;;
15482;SDS011;7843;50.330;7.312;2023-04-08T06:38:30;19.55;;;10.18;;
15482;SDS011;7843;50.330;7.312;2023-04-08T06:41:06;20.55;;;9.30;;
15482;SDS011;7843;50.330;7.312;2023-04-08T06:43:34;24.60;;;11.13;;
15482;SDS011;7843;50.330;7.312;2023-04-08T06:46:01;18.85;;;10.07;;
15482;SDS011;7843;50.330;7.312;2023-04-08T06:48:28;18.98;;;9.65;;
15482;SDS011;7843;50.330;7.312;2023-04-08T06:50:59;20.48;;;9.07;;
15482;SDS011;7843;50.330;7.312;2023-04-08T06:53:26;22.98;;;11.63;;
15482;SDS011;7843;50.330;7.312;2023-04-08T06:55:55;23.48;;;10.38;;
15482;SDS011;7843;50.330;7.312;2023-04-08T06:58:21;19.23;;;10.57;;
15482;SDS011;7843;50.330;7.312;2023-04-08T07:00:48;22.88;;;9.10;;
15482;SDS011;7843;50.330;7.312;2023-04-08T07:03:15;20.48;;;10.27;;
15482;SDS011;7843;50.330;7.312;2023-04-08T07:05:41;22.43;;;11.00;;
15482;SDS011;7843;50.330;7.312;2023-04-08T07:08:08;20.87;;;9.33;;
15482;SDS011;7843;50.330;7.312;2023-04-08T07:10:35;27.50;;;11.33;;
15482;SDS011;7843;50.330;7.312;2023-04-08T07:13:02;18.08;;;10.13;;
15482;SDS011;7843;50.330;7.312;2023-04-08T07:15:29;20.73;;;10.70;;
15482;SDS011;7843;50.330;7.312;2023-04-08T07:17:56;20.48;;;10.45;;
15482;SDS011;7843;50.330;7.312;2023-04-08T07:20:23;16.73;;;9.68;;
15482;SDS011;7843;50.330;7.312;2023-04-08T07:22:51;26.55;;;11.98;;
15482;SDS011;7843;50.330;7.312;2023-04-08T07:25:20;24.88;;;11.25;;
15482;SDS011;7843;50.330;7.312;2023-04-08T07:27:47;28.27;;;10.60;;
15482;SDS011;7843;50.330;7.312;2023-04-08T07:30:14;24.70;;;11.18;;
15482;SDS011;7843;50.330;7.312;2023-04-08T07:32:41;31.47;;;13.30;;
15482;SDS011;7843;50.330;7.312;2023-04-08T07:35:07;20.58;;;10.63;;
15482;SDS011;7843;50.330;7.312;2023-04-08T07:37:34;27.23;;;11.27;;
15482;SDS011;7843;50.330;7.312;2023-04-08T07:40:01;28.63;;;11.93;;
15482;SDS011;7843;50.330;7.312;2023-04-08T07:42:28;30.92;;;12.98;;
15482;SDS011;7843;50.330;7.312;2023-04-08T07:44:54;20.92;;;10.70;;
15482;SDS011;7843;50.330;7.312;2023-04-08T07:47:21;24.92;;;11.38;;
15482;SDS011;7843;50.330;7.312;2023-04-08T07:49:48;28.40;;;12.32;;
15482;SDS011;7843;50.330;7.312;2023-04-08T07:52:14;24.75;;;11.10;;
15482;SDS011;7843;50.330;7.312;2023-04-08T07:54:41;25.00;;;11.60;;
15482;SDS011;7843;50.330;7.312;2023-04-08T07:57:08;20.73;;;10.17;;
15482;SDS011;7843;50.330;7.312;2023-04-08T07:59:35;24.43;;;10.97;;
15482;SDS011;7843;50.330;7.312;2023-04-08T08:02:02;23.73;;;10.63;;
15482;SDS011;7843;50.330;7.312;2023-04-08T08:04:28;23.90;;;11.53;;
15482;SDS011;7843;50.330;7.312;2023-04-08T08:06:55;22.42;;;11.20;;
15482;SDS011;7843;50.330;7.312;2023-04-08T08:09:22;19.15;;;9.85;;
15482;SDS011;7843;50.330;7.312;2023-04-08T08:11:48;24.77;;;10.80;;
15482;SDS011;7843;50.330;7.312;2023-04-08T08:14:15;22.40;;;11.38;;
15482;SDS011;7843;50.330;7.312;2023-04-08T08:16:42;19.92;;;10.55;;
15482;SDS011;7843;50.330;7.312;2023-04-08T08:19:09;18.42;;;10.13;;
15482;SDS011;7843;50.330;7.312;2023-04-08T08:21:37;19.55;;;10.50;;
15482;SDS011;7843;50.330;7.312;2023-04-08T08:24:04;21.83;;;10.63;;
15482;SDS011;7843;50.330;7.312;2023-04-08T08:26:35;20.10;;;10.35;;
15482;SDS011;7843;50.330;7.312;2023-04-08T08:29:02;23.65;;;10.07;;
15482;SDS011;7843;50.330;7.312;2023-04-08T08:31:29;21.98;;;10.48;;
15482;SDS011;7843;50.330;7.312;2023-04-08T08:33:56;22.40;;;10.90;;
15482;SDS011;7843;50.330;7.312;2023-04-08T08:36:23;19.58;;;9.65;;
15482;SDS011;7843;50.330;7.312;2023-04-08T08:38:50;19.65;;;10.00;;
15482;SDS011;7843;50.330;7.312;2023-04-08T08:41:19;20.02;;;9.95;;
15482;SDS011;7843;50.330;7.312;2023-04-08T08:43:46;21.02;;;11.02;;
15482;SDS011;7843;50.330;7.312;2023-04-08T08:46:15;21.48;;;10.57;;
15482;SDS011;7843;50.330;7.312;2023-04-08T08:48:44;17.17;;;10.45;;
15482;SDS011;7843;50.330;7.312;2023-04-08T08:51:11;20.92;;;10.02;;
15482;SDS011;7843;50.330;7.312;2023-04-08T08:53:38;23.80;;;11.32;;
15482;SDS011;7843;50.330;7.312;2023-04-08T08:56:10;19.92;;;10.85;;
15482;SDS011;7843;50.330;7.312;2023-04-08T08:58:40;21.48;;;11.18;;
15482;SDS011;7843;50.330;7.312;2023-04-08T09:04:12;22.40;;;10.57;;
15482;SDS011;7843;50.330;7.312;2023-04-08T09:06:41;18.65;;;10.48;;
15482;SDS011;7843;50.330;7.312;2023-04-08T09:09:09;21.70;;;11.63;;
15482;SDS011;7843;50.330;7.312;2023-04-08T09:11:40;19.60;;;9.60;;
15482;SDS011;7843;50.330;7.312;2023-04-08T09:16:47;19.02;;;10.38;;
15482;SDS011;7843;50.330;7.312;2023-04-08T09:19:15;19.55;;;10.45;;
15482;SDS011;7843;50.330;7.312;2023-04-08T09:21:41;16.52;;;9.30;;
15482;SDS011;7843;50.330;7.312;2023-04-08T09:24:09;19.43;;;10.47;;
15482;SDS011;7843;50.330;7.312;2023-04-08T09:26:53;16.77;;;9.38;;
15482;SDS011;7843;50.330;7.312;2023-04-08T09:29:22;21.00;;;9.82;;
15482;SDS011;7843;50.330;7.312;2023-04-08T09:31:52;18.25;;;9.48;;
15482;SDS011;7843;50.330;7.312;2023-04-08T09:34:21;19.20;;;9.88;;
15482;SDS011;7843;50.330;7.312;2023-04-08T09:36:48;17.97;;;9.93;;
15482;SDS011;7843;50.330;7.312;2023-04-08T09:39:16;19.30;;;9.32;;
15482;SDS011;7843;50.330;7.312;2023-04-08T09:41:43;19.65;;;9.40;;
15482;SDS011;7843;50.330;7.312;2023-04-08T09:44:11;18.48;;;10.07;;
15482;SDS011;7843;50.330;7.312;2023-04-08T09:49:36;17.77;;;9.88;;
15482;SDS011;7843;50.330;7.312;2023-04-08T09:52:10;15.65;;;9.88;;
15482;SDS011;7843;50.330;7.312;2023-04-08T09:57:30;14.68;;;10.02;;
15482;SDS011;7843;50.330;7.312;2023-04-08T10:00:13;20.42;;;10.38;;
15482;SDS011;7843;50.330;7.312;2023-04-08T10:02:46;16.33;;;9.87;;
15482;SDS011;7843;50.330;7.312;2023-04-08T10:05:21;17.55;;;9.95;;
15482;SDS011;7843;50.330;7.312;2023-04-08T10:07:50;18.83;;;10.73;;
15482;SDS011;7843;50.330;7.312;2023-04-08T10:10:18;19.45;;;11.45;;
15482;SDS011;7843;50.330;7.312;2023-04-08T10:12:45;19.38;;;10.95;;
15482;SDS011;7843;50.330;7.312;2023-04-08T10:15:32;16.98;;;10.48;;
15482;SDS011;7843;50.330;7.312;2023-04-08T10:23:01;19.25;;;11.30;;
15482;SDS011;7843;50.330;7.312;2023-04-08T10:27:56;19.67;;;10.30;;
15482;SDS011;7843;50.330;7.312;2023-04-08T10:32:54;18.15;;;10.10;;
15482;SDS011;7843;50.330;7.312;2023-04-08T10:35:28;19.13;;;11.00;;
15482;SDS011;7843;50.330;7.312;2023-04-08T10:38:00;16.95;;;10.52;;
15482;SDS011;7843;50.330;7.312;2023-04-08T10:40:28;17.98;;;10.13;;
15482;SDS011;7843;50.330;7.312;2023-04-08T10:43:01;14.75;;;9.75;;
15482;SDS011;7843;50.330;7.312;2023-04-08T10:45:28;15.18;;;9.48;;
15482;SDS011;7843;50.330;7.312;2023-04-08T10:47:55;17.73;;;10.38;;
15482;SDS011;7843;50.330;7.312;2023-04-08T10:50:22;19.55;;;10.52;;
15482;SDS011;7843;50.330;7.312;2023-04-08T10:52:50;17.58;;;10.40;;
15482;SDS011;7843;50.330;7.312;2023-04-08T10:55:21;20.15;;;10.88;;
15482;SDS011;7843;50.330;7.312;2023-04-08T10:57:49;16.02;;;10.13;;
15482;SDS011;7843;50.330;7.312;2023-04-08T11:00:17;17.63;;;9.90;;
15482;SDS011;7843;50.330;7.312;2023-04-08T11:02:44;17.83;;;10.52;;
15482;SDS011;7843;50.330;7.312;2023-04-08T11:05:11;16.85;;;10.27;;
15482;SDS011;7843;50.330;7.312;2023-04-08T11:07:40;19.23;;;10.80;;
15482;SDS011;7843;50.330;7.312;2023-04-08T11:10:07;16.80;;;10.32;;
15482;SDS011;7843;50.330;7.312;2023-04-08T11:12:35;17.02;;;10.10;;
15482;SDS011;7843;50.330;7.312;2023-04-08T11:15:03;18.88;;;10.18;;
15482;SDS011;7843;50.330;7.312;2023-04-08T11:17:32;19.23;;;9.57;;
15482;SDS011;7843;50.330;7.312;2023-04-08T11:20:00;17.13;;;9.48;;
15482;SDS011;7843;50.330;7.312;2023-04-08T11:22:31;14.07;;;9.05;;
15482;SDS011;7843;50.330;7.312;2023-04-08T11:24:59;16.70;;;9.10;;
15482;SDS011;7843;50.330;7.312;2023-04-08T11:27:26;15.98;;;9.63;;
15482;SDS011;7843;50.330;7.312;2023-04-08T11:29:56;14.57;;;8.18;;
15482;SDS011;7843;50.330;7.312;2023-04-08T11:32:24;15.73;;;9.33;;
15482;SDS011;7843;50.330;7.312;2023-04-08T11:34:51;18.65;;;10.45;;
15482;SDS011;7843;50.330;7.312;2023-04-08T11:37:18;15.55;;;10.32;;
15482;SDS011;7843;50.330;7.312;2023-04-08T11:39:45;16.63;;;9.45;;
15482;SDS011;7843;50.330;7.312;2023-04-08T11:42:28;15.32;;;8.95;;
15482;SDS011;7843;50.330;7.312;2023-04-08T11:44:56;14.82;;;9.45;;
15482;SDS011;7843;50.330;7.312;2023-04-08T11:47:32;14.45;;;9.55;;
15482;SDS011;7843;50.330;7.312;2023-04-08T11:50:03;15.50;;;9.55;;
15482;SDS011;7843;50.330;7.312;2023-04-08T11:52:43;16.25;;;9.43;;
15482;SDS011;7843;50.330;7.312;2023-04-08T11:55:21;16.98;;;9.75;;
15482;SDS011;7843;50.330;7.312;2023-04-08T11:57:50;14.75;;;8.77;;
15482;SDS011;7843;50.330;7.312;2023-04-08T12:00:20;13.18;;;8.48;;
15482;SDS011;7843;50.330;7.312;2023-04-08T12:02:47;15.40;;;8.82;;
15482;SDS011;7843;50.330;7.312;2023-04-08T12:05:15;13.88;;;8.35;;
15482;SDS011;7843;50.330;7.312;2023-04-08T12:07:42;13.40;;;8.88;;
15482;SDS011;7843;50.330;7.312;2023-04-08T12:10:09;16.05;;;8.82;;
15482;SDS011;7843;50.330;7.312;2023-04-08T12:12:37;15.45;;;8.55;;
15482;SDS011;7843;50.330;7.312;2023-04-08T12:15:04;13.65;;;8.32;;
15482;SDS011;7843;50.330;7.312;2023-04-08T12:17:33;15.40;;;8.32;;
15482;SDS011;7843;50.330;7.312;2023-04-08T12:20:01;14.65;;;8.80;;
15482;SDS011;7843;50.330;7.312;2023-04-08T12:22:27;14.10;;;8.75;;
15482;SDS011;7843;50.330;7.312;2023-04-08T12:24:54;15.25;;;9.65;;
15482;SDS011;7843;50.330;7.312;2023-04-08T12:27:22;13.55;;;7.60;;
15482;SDS011;7843;50.330;7.312;2023-04-08T12:29:48;13.45;;;7.85;;
15482;SDS011;7843;50.330;7.312;2023-04-08T12:32:15;14.13;;;7.90;;
15482;SDS011;7843;50.330;7.312;2023-04-08T12:34:42;13.70;;;7.25;;
15482;SDS011;7843;50.330;7.312;2023-04-08T12:37:08;12.82;;;7.78;;
15482;SDS011;7843;50.330;7.312;2023-04-08T12:39:35;15.43;;;8.48;;
15482;SDS011;7843;50.330;7.312;2023-04-08T12:42:02;15.15;;;9.18;;
15482;SDS011;7843;50.330;7.312;2023-04-08T12:44:29;16.33;;;8.85;;
15482;SDS011;7843;50.330;7.312;2023-04-08T12:46:56;13.98;;;8.50;;
15482;SDS011;7843;50.330;7.312;2023-04-08T12:49:26;16.05;;;8.48;;
15482;SDS011;7843;50.330;7.312;2023-04-08T12:51:52;14.52;;;8.20;;
15482;SDS011;7843;50.330;7.312;2023-04-08T12:54:20;15.02;;;7.72;;
15482;SDS011;7843;50.330;7.312;2023-04-08T12:56:46;12.85;;;7.78;;
15482;SDS011;7843;50.330;7.312;2023-04-08T12:59:14;13.15;;;7.90;;
15482;SDS011;7843;50.330;7.312;2023-04-08T13:01:41;13.02;;;7.88;;
15482;SDS011;7843;50.330;7.312;2023-04-08T13:04:08;14.45;;;8.05;;
15482;SDS011;7843;50.330;7.312;2023-04-08T13:06:34;13.38;;;7.30;;
15482;SDS011;7843;50.330;7.312;2023-04-08T13:09:01;14.60;;;8.25;;
15482;SDS011;7843;50.330;7.312;2023-04-08T13:11:28;13.85;;;8.07;;
15482;SDS011;7843;50.330;7.312;2023-04-08T13:13:55;12.30;;;7.97;;
15482;SDS011;7843;50.330;7.312;2023-04-08T13:16:22;15.17;;;8.80;;
15482;SDS011;7843;50.330;7.312;2023-04-08T13:18:49;18.52;;;9.60;;
15482;SDS011;7843;50.330;7.312;2023-04-08T13:21:15;11.88;;;8.10;;
15482;SDS011;7843;50.330;7.312;2023-04-08T13:23:42;12.43;;;6.60;;
15482;SDS011;7843;50.330;7.312;2023-04-08T13:26:09;13.93;;;7.87;;
15482;SDS011;7843;50.330;7.312;2023-04-08T13:28:35;11.57;;;6.97;;
15482;SDS011;7843;50.330;7.312;2023-04-08T13:31:06;14.07;;;7.97;;
15482;SDS011;7843;50.330;7.312;2023-04-08T13:33:32;11.48;;;7.68;;
15482;SDS011;7843;50.330;7.312;2023-04-08T13:35:59;13.93;;;7.22;;
15482;SDS011;7843;50.330;7.312;2023-04-08T13:38:26;12.02;;;7.07;;
15482;SDS011;7843;50.330;7.312;2023-04-08T13:40:53;14.97;;;7.27;;
15482;SDS011;7843;50.330;7.312;2023-04-08T13:43:20;15.27;;;8.10;;
15482;SDS011;7843;50.330;7.312;2023-04-08T13:45:47;13.70;;;7.47;;
15482;SDS011;7843;50.330;7.312;2023-04-08T13:48:14;13.52;;;7.30;;
15482;SDS011;7843;50.330;7.312;2023-04-08T13:50:41;14.32;;;7.55;;
15482;SDS011;7843;50.330;7.312;2023-04-08T13:53:08;13.40;;;7.35;;
15482;SDS011;7843;50.330;7.312;2023-04-08T13:55:35;13.65;;;7.30;;
15482;SDS011;7843;50.330;7.312;2023-04-08T13:58:02;15.18;;;7.22;;
15482;SDS011;7843;50.330;7.312;2023-04-08T14:00:31;13.43;;;7.57;;
15482;SDS011;7843;50.330;7.312;2023-04-08T14:02:58;14.83;;;7.97;;
15482;SDS011;7843;50.330;7.312;2023-04-08T14:05:25;11.30;;;6.82;;
15482;SDS011;7843;50.330;7.312;2023-04-08T14:07:52;12.20;;;7.38;;
15482;SDS011;7843;50.330;7.312;2023-04-08T14:10:18;15.00;;;7.65;;
15482;SDS011;7843;50.330;7.312;2023-04-08T14:12:45;12.10;;;7.03;;
15482;SDS011;7843;50.330;7.312;2023-04-08T14:15:12;12.48;;;6.63;;
15482;SDS011;7843;50.330;7.312;2023-04-08T14:17:38;13.05;;;7.53;;
15482;SDS011;7843;50.330;7.312;2023-04-08T14:20:06;13.90;;;6.80;;
15482;SDS011;7843;50.330;7.312;2023-04-08T14:22:33;11.65;;;6.65;;
15482;SDS011;7843;50.330;7.312;2023-04-08T14:24:59;10.88;;;5.88;;
15482;SDS011;7843;50.330;7.312;2023-04-08T14:27:27;12.20;;;5.63;;
15482;SDS011;7843;50.330;7.312;2023-04-08T14:29:53;10.32;;;6.13;;
15482;SDS011;7843;50.330;7.312;2023-04-08T14:32:20;10.30;;;5.90;;
15482;SDS011;7843;50.330;7.312;2023-04-08T14:34:47;10.93;;;5.90;;
15482;SDS011;7843;50.330;7.312;2023-04-08T14:37:14;12.15;;;6.88;;
15482;SDS011;7843;50.330;7.312;2023-04-08T14:39:43;12.35;;;6.72;;
15482;SDS011;7843;50.330;7.312;2023-04-08T14:42:09;11.57;;;6.30;;
15482;SDS011;7843;50.330;7.312;2023-04-08T14:44:36;13.43;;;6.93;;
15482;SDS011;7843;50.330;7.312;2023-04-08T14:47:03;12.27;;;6.75;;
15482;SDS011;7843;50.330;7.312;2023-04-08T14:49:30;14.50;;;6.65;;
15482;SDS011;7843;50.330;7.312;2023-04-08T14:51:56;11.65;;;6.28;;
15482;SDS011;7843;50.330;7.312;2023-04-08T14:54:23;13.38;;;6.93;;
15482;SDS011;7843;50.330;7.312;2023-04-08T14:56:50;11.30;;;6.40;;
15482;SDS011;7843;50.330;7.312;2023-04-08T14:59:17;15.20;;;6.93;;
15482;SDS011;7843;50.330;7.312;2023-04-08T15:01:43;16.35;;;8.23;;
15482;SDS011;7843;50.330;7.312;2023-04-08T15:04:10;16.17;;;8.27;;
15482;SDS011;7843;50.330;7.312;2023-04-08T15:06:37;14.23;;;8.02;;
15482;SDS011;7843;50.330;7.312;2023-04-08T15:09:05;15.95;;;7.93;;